Time;durP1;ratioP1;P1;durP2;ratioP2;P2;SDS_P1;SDS_P2;PMS_P1;PMS_P2;Temp;Humidity;BMP_temperature;BMP_pressure;BME280_temperature;BME280_humidity;BME280_pressure;Samples;Min_cycle;Max_cycle;Signal;HPM_P1;HPM_P2
2022/09/25 00:01:27;;;;;;;;;;;14.30;67.50;;;9.87;100.00;95165.28;4959097;28;19916;-45
2022/09/25 00:04:03;;;;;;;;;;;14.20;67.50;;;9.87;100.00;95162.63;4974611;28;19963;-47
2022/09/25 00:06:32;;;;;;;;;;;14.30;67.60;;;9.87;100.00;95156.47;4958795;28;19916;-45
2022/09/25 00:09:03;;;;;;;;;;;14.20;67.50;;;9.86;100.00;95163.66;4991241;28;19910;-46
2022/09/25 00:11:31;;;;;;;;;;;14.20;67.60;;;9.85;100.00;95155.97;4974852;28;19914;-45
2022/09/25 00:14:00;;;;;;;;;;;14.20;67.60;;;9.84;100.00;95155.16;4972882;28;19909;-51
2022/09/25 00:16:31;;;;;;;;;;;14.20;67.60;;;9.85;100.00;95159.41;4977015;28;19909;-45
2022/09/25 00:21:51;;;;;;;;;;;14.20;67.60;;;9.81;100.00;95154.88;4972236;28;20371;-45
2022/09/25 00:24:18;;;;;;;;;;;14.20;67.60;;;9.78;100.00;95150.09;4972353;28;20288;-47
2022/09/25 00:26:50;;;;;;;;;;;14.20;67.70;;;9.75;100.00;95145.34;4986117;28;19920;-45
2022/09/25 00:29:19;;;;;;;;;;;14.20;67.60;;;9.72;100.00;95149.34;4991676;28;19909;-45
2022/09/25 00:31:45;;;;;;;;;;;14.10;67.60;;;9.70;100.00;95151.47;4990077;28;19921;-45
2022/09/25 00:34:11;;;;;;;;;;;14.10;67.60;;;9.63;100.00;95146.44;4989617;28;20361;-46
2022/09/25 00:36:37;;;;;;;;;;;14.10;67.60;;;9.60;100.00;95148.81;4974488;28;19948;-45
2022/09/25 00:39:06;;;;;;;;;;;14.00;67.60;;;9.57;100.00;95152.81;4957618;28;20364;-45
2022/09/25 00:41:32;;;;;;;;;;;14.00;67.60;;;9.55;100.00;95151.47;4954939;28;20387;-46
2022/09/25 00:44:02;;;;;;;;;;;14.00;67.70;;;9.53;100.00;95158.91;4969273;28;19957;-45
2022/09/25 00:46:42;;;;;;;;;;;13.90;67.70;;;9.49;100.00;95150.69;4974543;28;19959;-45
2022/09/25 00:49:11;;;;;;;;;;;13.90;67.70;;;9.47;100.00;95153.63;4974035;28;20269;-45
2022/09/25 00:51:51;;;;;;;;;;;13.90;67.80;;;9.45;100.00;95158.41;4979226;28;20283;-46
2022/09/25 00:54:51;;;;;;;;;;;13.90;67.80;;;9.43;100.00;95159.72;4979405;28;20065;-48
2022/09/25 00:57:28;;;;;;;;;;;13.80;67.80;;;9.39;100.00;95158.69;4955604;28;20008;-45
2022/09/25 01:00:06;;;;;;;;;;;13.80;67.80;;;9.36;100.00;95161.88;4954420;28;20299;-45
2022/09/25 01:02:55;;;;;;;;;;;13.80;67.90;;;9.33;100.00;95149.91;4975619;28;19939;-45
2022/09/25 01:05:35;;;;;;;;;;;13.80;67.90;;;9.31;100.00;95143.25;4972015;28;19963;-46
2022/09/25 01:08:07;;;;;;;;;;;13.80;67.90;;;9.30;100.00;95129.16;4961526;28;20032;-45
2022/09/25 01:10:33;;;;;;;;;;;13.80;68.00;;;9.35;100.00;95123.88;4961145;28;19920;-45
2022/09/25 01:13:00;;;;;;;;;;;13.80;68.00;;;9.38;100.00;95131.31;4956396;28;19914;-46
2022/09/25 01:16:01;;;;;;;;;;;13.80;68.00;;;9.38;100.00;95141.94;4977811;28;19909;-45
2022/09/25 01:19:18;;;;;;;;;;;13.80;68.00;;;9.38;100.00;95138.47;4956458;28;20379;-45
2022/09/25 01:22:21;;;;;;;;;;;13.80;68.00;;;9.33;100.00;95133.16;4964953;28;20011;-45
2022/09/25 01:25:24;;;;;;;;;;;13.80;67.90;;;9.27;100.00;95133.19;4973495;28;19961;-46
2022/09/25 01:28:30;;;;;;;;;;;13.80;67.90;;;9.24;100.00;95120.44;4971615;28;19910;-46
2022/09/25 01:31:14;;;;;;;;;;;13.70;67.90;;;9.19;100.00;95112.44;4971187;28;19909;-45
2022/09/25 01:33:54;;;;;;;;;;;13.70;67.90;;;9.16;100.00;95112.19;4973733;28;19917;-47
2022/09/25 01:36:41;;;;;;;;;;;13.60;67.90;;;9.08;100.00;95118.03;4954790;28;19913;-45
2022/09/25 01:39:40;;;;;;;;;;;13.60;67.90;;;9.09;100.00;95123.09;4968112;28;19917;-45
2022/09/25 01:42:24;;;;;;;;;;;13.60;67.90;;;9.08;100.00;95108.19;4954030;28;19913;-46
2022/09/25 01:45:02;;;;;;;;;;;13.50;67.90;;;9.06;100.00;95120.97;4969771;28;19960;-49
2022/09/25 01:47:37;;;;;;;;;;;13.50;68.00;;;9.03;100.00;95124.94;4989837;28;19913;-48
2022/09/25 01:50:32;;;;;;;;;;;13.50;68.10;;;9.02;100.00;95126.00;4953444;28;19909;-50
2022/09/25 01:53:06;;;;;;;;;;;13.50;68.10;;;9.02;100.00;95119.88;4948053;28;19913;-46
2022/09/25 01:55:46;;;;;;;;;;;13.40;68.10;;;8.99;100.00;95121.22;4939089;28;19914;-48
2022/09/25 01:58:56;;;;;;;;;;;13.40;68.10;;;8.94;100.00;95117.75;4963759;28;19941;-49
2022/09/25 02:01:37;;;;;;;;;;;13.40;68.10;;;8.88;100.00;95118.81;4981663;28;19917;-46
2022/09/25 02:05:08;;;;;;;;;;;13.40;68.10;;;8.82;100.00;95111.91;4945928;28;19920;-47
2022/09/25 02:07:49;;;;;;;;;;;13.40;68.20;;;8.77;100.00;95104.72;4974438;28;19909;-45
2022/09/25 02:10:25;;;;;;;;;;;13.30;68.10;;;8.79;100.00;95103.41;4955577;28;19972;-45
2022/09/25 02:13:02;;;;;;;;;;;13.30;68.10;;;8.79;100.00;95115.88;4937964;28;19929;-46
2022/09/25 02:15:42;;;;;;;;;;;13.30;68.90;;;8.78;100.00;95119.63;4954429;28;19964;-46
2022/09/25 02:21:08;;;;;;;;;;;13.30;68.20;;;8.79;100.00;95124.66;4976667;28;19924;-45
2022/09/25 02:24:13;;;;;;;;;;;13.30;68.30;;;8.79;100.00;95124.66;4973627;23;19922;-48
2022/09/25 02:26:45;;;;;;;;;;;13.40;68.30;;;8.82;100.00;95125.97;4951284;28;19953;-51
2022/09/25 02:29:12;;;;;;;;;;;13.40;68.40;;;8.84;100.00;95109.78;4970060;28;19910;-47
2022/09/25 02:32:06;;;;;;;;;;;13.40;68.40;;;8.91;100.00;95115.63;4949985;28;19914;-48
2022/09/25 02:34:38;;;;;;;;;;;13.50;68.50;;;8.96;100.00;95113.78;4953629;28;19910;-44
2022/09/25 02:37:17;;;;;;;;;;;13.40;68.40;;;8.99;100.00;95125.72;4941954;28;19939;-47
2022/09/25 02:39:54;;;;;;;;;;;13.50;68.40;;;8.99;100.00;95123.06;4944311;28;20340;-43
2022/09/25 02:42:54;;;;;;;;;;;13.50;68.40;;;8.98;100.00;95110.84;4948376;28;19914;-45
2022/09/25 02:45:56;;;;;;;;;;;13.50;68.30;;;8.94;100.00;95105.28;4961694;28;19914;-48
2022/09/25 02:48:40;;;;;;;;;;;13.50;68.20;;;8.92;100.00;95102.06;4970092;28;19910;-49
2022/09/25 02:51:44;;;;;;;;;;;13.50;68.20;;;8.85;100.00;95104.22;4965181;28;19917;-51
2022/09/25 02:54:22;;;;;;;;;;;13.40;68.10;;;8.80;100.00;95104.19;4953026;28;19921;-48
2022/09/25 02:57:05;;;;;;;;;;;13.40;68.20;;;8.78;100.00;95111.66;4952967;28;20284;-46
2022/09/25 02:59:43;;;;;;;;;;;13.30;68.10;;;8.76;100.00;95109.25;4954420;28;19914;-49
2022/09/25 03:02:15;;;;;;;;;;;13.30;68.30;;;8.78;100.00;95109.00;4960156;28;19921;-45
2022/09/25 03:04:48;;;;;;;;;;;13.30;68.30;;;8.78;100.00;95112.44;4937314;28;19968;-43
2022/09/25 03:07:19;;;;;;;;;;;13.30;68.30;;;8.73;100.00;95106.31;4937361;28;19910;-43
2022/09/25 03:09:53;;;;;;;;;;;13.30;68.40;;;8.73;100.00;95101.81;4957065;28;20381;-45
2022/09/25 03:12:24;;;;;;;;;;;13.30;68.40;;;8.74;100.00;95106.06;4940903;28;19914;-47
2022/09/25 03:14:53;;;;;;;;;;;13.30;68.40;;;8.74;100.00;95102.59;4952354;28;20049;-45
2022/09/25 03:17:22;;;;;;;;;;;13.20;68.40;;;8.72;100.00;95107.38;4954368;28;19984;-46
2022/09/25 03:19:47;;;;;;;;;;;13.20;68.40;;;8.70;100.00;95112.16;4947826;28;19910;-47
2022/09/25 03:22:13;;;;;;;;;;;13.20;68.30;;;8.67;100.00;95100.19;4954135;28;19910;-47
2022/09/25 03:24:42;;;;;;;;;;;13.20;68.40;;;8.66;100.00;95106.59;4972029;28;20404;-43
2022/09/25 03:27:10;;;;;;;;;;;13.20;68.30;;;8.66;100.00;95092.50;4954913;28;19932;-44
2022/09/25 03:29:47;;;;;;;;;;;13.20;68.30;;;8.66;100.00;95097.81;4956065;28;19960;-48
2022/09/25 03:32:13;;;;;;;;;;;13.20;68.30;;;8.65;100.00;95094.38;4972377;28;19920;-49
2022/09/25 03:34:39;;;;;;;;;;;13.20;68.40;;;8.63;100.00;95108.97;4973261;28;19920;-45
2022/09/25 03:37:08;;;;;;;;;;;13.20;68.40;;;8.61;100.00;95106.56;4972778;28;20284;-46
2022/09/25 03:39:36;;;;;;;;;;;13.20;68.40;;;8.60;100.00;95104.97;4972178;28;19938;-47
2022/09/25 03:42:05;;;;;;;;;;;13.20;68.40;;;8.61;100.00;95097.81;4956365;28;20288;-44
2022/09/25 03:44:31;;;;;;;;;;;13.20;68.40;;;8.63;100.00;95101.78;4982068;28;19909;-43
2022/09/25 03:46:57;;;;;;;;;;;13.20;69.20;;;8.64;100.00;95102.59;4956039;28;20280;-46
2022/09/25 03:49:23;;;;;;;;;;;13.20;68.50;;;8.67;100.00;95084.28;4954936;28;19925;-45
2022/09/25 03:51:48;;;;;;;;;;;13.20;68.50;;;8.72;100.00;95088.81;4955811;28;20327;-46
2022/09/25 03:54:14;;;;;;;;;;;13.20;68.50;;;8.73;100.00;95090.38;4955307;28;20228;-46
2022/09/25 03:56:40;;;;;;;;;;;13.20;68.50;;;8.74;100.00;95086.66;4971029;28;20288;-43
2022/09/25 03:59:09;;;;;;;;;;;13.30;68.50;;;8.73;100.00;95093.03;4972959;28;19910;-47
2022/09/25 04:01:41;;;;;;;;;;;13.20;68.50;;;8.72;100.00;95084.28;4959448;28;19910;-44
2022/09/25 04:04:10;;;;;;;;;;;13.30;68.50;;;8.73;100.00;95080.56;4975917;28;20449;-44
2022/09/25 04:06:41;;;;;;;;;;;13.30;68.60;;;8.72;100.00;95091.47;4971551;28;20063;-44
2022/09/25 04:09:15;;;;;;;;;;;13.30;68.60;;;8.68;100.00;95095.69;4955152;28;20319;-43
2022/09/25 04:11:42;;;;;;;;;;;13.20;68.50;;;8.66;100.00;95093.31;4972652;28;19913;-42
2022/09/25 04:14:08;;;;;;;;;;;13.20;68.50;;;8.70;100.00;95090.91;4954263;28;20351;-43
2022/09/25 04:16:33;;;;;;;;;;;13.30;68.60;;;8.73;100.00;95096.50;4973036;28;20000;-45
2022/09/25 04:18:59;;;;;;;;;;;13.30;68.60;;;8.75;100.00;95099.69;4971779;28;19910;-43
2022/09/25 04:21:27;;;;;;;;;;;13.30;68.60;;;8.79;100.00;95100.75;4964567;28;19909;-45
2022/09/25 04:26:46;;;;;;;;;;;13.30;68.70;;;8.85;100.00;95098.09;4972015;28;20379;-43
2022/09/25 04:29:13;;;;;;;;;;;13.40;68.80;;;8.88;100.00;95108.19;4972604;28;20308;-44
2022/09/25 04:31:39;;;;;;;;;;;13.40;68.80;;;8.90;100.00;95104.22;4971590;28;19918;-46
2022/09/25 04:34:07;;;;;;;;;;;13.40;68.80;;;8.93;100.00;95098.38;4971985;28;20283;-43
2022/09/25 04:36:34;;;;;;;;;;;13.50;68.80;;;8.98;100.00;95094.91;4955043;28;19921;-46
2022/09/25 04:39:02;;;;;;;;;;;13.50;68.80;;;9.02;100.00;95103.94;4954529;28;20291;-44
2022/09/25 04:41:28;;;;;;;;;;;13.50;68.80;;;9.05;100.00;95103.41;4970700;28;20280;-44
2022/09/25 04:43:54;;;;;;;;;;;13.60;68.90;;;9.09;100.00;95101.84;4923381;28;19917;-44
2022/09/25 04:46:25;;;;;;;;;;;13.60;68.80;;;9.12;100.00;95111.94;4955049;28;19913;-44
2022/09/25 04:48:54;;;;;;;;;;;13.60;68.80;;;9.12;100.00;95114.59;4972501;28;20016;-45
2022/09/25 04:51:20;;;;;;;;;;;13.70;68.90;;;9.15;100.00;95119.38;4977634;28;19914;-43
2022/09/25 04:53:46;;;;;;;;;;;13.70;68.70;;;9.17;100.00;95117.22;4954617;28;20043;-43
2022/09/25 04:56:15;;;;;;;;;;;13.70;68.70;;;9.19;100.00;95117.75;4971831;28;19996;-43
2022/09/25 04:58:50;;;;;;;;;;;13.80;68.70;;;9.22;100.00;95116.44;4970895;28;19910;-44
2022/09/25 05:01:24;;;;;;;;;;;13.80;68.70;;;9.21;100.00;95106.84;4971489;28;19917;-44
2022/09/25 05:03:52;;;;;;;;;;;13.80;68.70;;;9.24;100.00;95104.47;4971607;28;20387;-44
2022/09/25 05:06:18;;;;;;;;;;;13.80;68.70;;;9.27;100.00;95100.47;4972202;28;19953;-43
2022/09/25 05:08:51;;;;;;;;;;;13.80;68.70;;;9.33;100.00;95112.69;4954427;28;19916;-44
2022/09/25 05:11:17;;;;;;;;;;;13.90;68.80;;;9.36;100.00;95103.38;4955182;28;19910;-43
2022/09/25 05:13:45;;;;;;;;;;;13.90;68.70;;;9.38;100.00;95112.69;4931881;28;19917;-44
2022/09/25 05:16:23;;;;;;;;;;;13.90;68.70;;;9.37;100.00;95112.94;4969665;28;19910;-45
2022/09/25 05:18:48;;;;;;;;;;;13.90;68.80;;;9.38;100.00;95118.00;4954588;28;20016;-46
2022/09/25 05:21:14;;;;;;;;;;;13.90;68.70;;;9.39;100.00;95111.63;4970688;28;20265;-44
2022/09/25 05:23:40;;;;;;;;;;;14.00;68.80;;;9.39;100.00;95124.13;4953917;28;19922;-44
2022/09/25 05:26:06;;;;;;;;;;;14.00;68.80;;;9.40;100.00;95118.56;4951080;28;19909;-45
2022/09/25 05:28:38;;;;;;;;;;;14.00;68.70;;;9.43;100.00;95123.34;4935294;29;19989;-47
2022/09/25 05:31:05;;;;;;;;;;;14.00;68.80;;;9.47;100.00;95129.69;4937585;28;19924;-46
2022/09/25 05:33:34;;;;;;;;;;;14.10;68.80;;;9.50;100.00;95131.81;4971460;28;19996;-45
2022/09/25 05:36:05;;;;;;;;;;;14.10;68.80;;;9.53;100.00;95124.34;4938829;28;19909;-45
2022/09/25 05:38:41;;;;;;;;;;;14.10;68.70;;;9.56;100.00;95129.97;4953554;28;20000;-45
2022/09/25 05:41:11;;;;;;;;;;;14.20;68.70;;;9.57;100.00;95128.88;4971563;28;19909;-45
2022/09/25 05:43:54;;;;;;;;;;;14.20;68.70;;;9.62;100.00;95130.72;4970835;28;19914;-48
2022/09/25 05:46:25;;;;;;;;;;;14.20;68.70;;;9.67;100.00;95122.75;4970468;28;19910;-48
2022/09/25 05:48:57;;;;;;;;;;;14.30;68.70;;;9.73;100.00;95129.66;4970131;28;20365;-46
2022/09/25 05:51:23;;;;;;;;;;;14.30;68.70;;;9.78;100.00;95134.16;4930967;28;19914;-47
2022/09/25 05:53:49;;;;;;;;;;;14.40;68.70;;;9.82;100.00;95130.69;4954776;28;19963;-45
2022/09/25 05:56:15;;;;;;;;;;;14.50;68.70;;;9.88;100.00;95139.47;4974994;28;20642;-45
2022/09/25 05:58:51;;;;;;;;;;;14.60;68.70;;;9.94;100.00;95139.16;4975448;28;19948;-46
2022/09/25 06:01:20;;;;;;;;;;;14.70;68.60;;;10.00;100.00;95137.28;4957446;28;20000;-45
2022/09/25 06:03:58;;;;;;;;;;;14.70;68.60;;;10.10;100.00;95144.44;4957427;28;20008;-45
2022/09/25 06:06:23;;;;;;;;;;;14.80;68.50;;;10.15;100.00;95139.09;4957723;28;19913;-45
2022/09/25 06:08:52;;;;;;;;;;;14.90;68.50;;;10.20;100.00;95139.06;4973404;28;20154;-45
2022/09/25 06:11:21;;;;;;;;;;;15.00;68.40;;;10.26;100.00;95139.84;4975194;28;20013;-47
2022/09/25 06:13:53;;;;;;;;;;;15.00;68.30;;;10.31;100.00;95137.19;4957574;28;19929;-45
2022/09/25 06:16:19;;;;;;;;;;;15.10;68.40;;;10.36;100.00;95142.50;4975387;28;19914;-45
2022/09/25 06:18:46;;;;;;;;;;;15.10;68.20;;;10.43;100.00;95132.34;4957898;28;20326;-46
2022/09/25 06:21:12;;;;;;;;;;;15.20;68.30;;;10.50;100.00;95148.84;4968769;28;19913;-46
2022/09/25 06:23:40;;;;;;;;;;;15.20;68.30;;;10.55;100.00;95142.66;4974345;28;20016;-45
2022/09/25 06:26:06;;;;;;;;;;;15.30;68.30;;;10.57;100.00;95148.53;4969651;28;19934;-47
2022/09/25 06:28:33;;;;;;;;;;;15.30;68.20;;;10.50;100.00;95142.69;4965934;28;19924;-46
2022/09/25 06:31:04;;;;;;;;;;;15.40;68.10;;;10.56;100.00;95141.59;4960523;28;19924;-51
2022/09/25 06:33:42;;;;;;;;;;;15.40;68.00;;;10.58;100.00;95142.91;4957360;28;20362;-46
2022/09/25 06:36:08;;;;;;;;;;;15.50;68.10;;;10.60;100.00;95134.66;4957629;28;20193;-47
2022/09/25 06:38:40;;;;;;;;;;;15.50;68.00;;;10.62;100.00;95140.50;4984170;28;20053;-48
2022/09/25 06:41:05;;;;;;;;;;;15.50;68.00;;;10.59;100.00;95141.88;4974447;28;19916;-47
2022/09/25 06:43:31;;;;;;;;;;;15.60;68.00;;;10.60;100.00;95140.00;4973438;28;20356;-48
2022/09/25 06:46:02;;;;;;;;;;;15.60;67.90;;;10.67;100.00;95139.69;4974307;28;19910;-48
2022/09/25 06:48:31;;;;;;;;;;;15.60;67.90;;;10.77;100.00;95147.59;4957272;28;20500;-48
2022/09/25 06:50:59;;;;;;;;;;;15.70;67.90;;;10.74;100.00;95148.94;4972492;28;20008;-50
2022/09/25 06:53:28;;;;;;;;;;;15.80;67.80;;;10.80;100.00;95142.53;4974116;28;20009;-48
2022/09/25 06:56:03;;;;;;;;;;;15.80;67.70;;;10.86;100.00;95151.28;4956084;28;19914;-49
2022/09/25 06:58:38;;;;;;;;;;;16.00;67.70;;;10.92;100.00;95152.84;4973129;28;19960;-46
2022/09/25 07:01:09;;;;;;;;;;;16.00;67.60;;;11.01;100.00;95150.41;4972939;28;19917;-46
2022/09/25 07:03:44;;;;;;;;;;;16.10;67.60;;;11.06;100.00;95151.16;4957148;28;19910;-45
2022/09/25 07:06:17;;;;;;;;;;;16.10;67.50;;;11.11;100.00;95148.44;4957103;28;19917;-46
2022/09/25 07:08:48;;;;;;;;;;;16.20;67.50;;;11.21;100.00;95147.56;4955866;28;20361;-48
2022/09/25 07:11:20;;;;;;;;;;;16.30;67.50;;;11.18;100.00;95147.31;4940469;28;20434;-45
2022/09/25 07:13:51;;;;;;;;;;;16.40;67.50;;;11.15;100.00;95150.53;4968301;28;19917;-51
2022/09/25 07:16:24;;;;;;;;;;;16.40;67.30;;;11.21;100.00;95149.44;4965059;28;19948;-46
2022/09/25 07:18:53;;;;;;;;;;;16.40;67.20;;;11.29;100.00;95149.66;4940777;28;20001;-48
2022/09/25 07:21:24;;;;;;;;;;;16.50;67.20;;;11.39;100.00;95158.63;4955520;28;20008;-45
2022/09/25 07:23:53;;;;;;;;;;;16.50;67.10;;;11.38;100.00;95157.84;4956381;28;19925;-46
2022/09/25 07:26:29;;;;;;;;;;;16.60;67.00;;;11.45;100.00;95160.97;4975509;28;19913;-46
2022/09/25 07:28:57;;;;;;;;;;;16.70;67.00;;;11.52;100.00;95160.66;4909176;28;23725;-46
2022/09/25 07:31:32;;;;;;;;;;;16.70;67.00;;;11.60;100.00;95156.59;4961265;28;19919;-45
2022/09/25 07:34:07;;;;;;;;;;;16.80;66.90;;;11.66;100.00;95160.78;4939904;28;20411;-46
2022/09/25 07:36:37;;;;;;;;;;;16.90;66.90;;;11.74;100.00;95160.19;4957410;28;19914;-46
2022/09/25 07:39:09;;;;;;;;;;;17.00;66.80;;;11.81;100.00;95165.97;4949745;28;20424;-46
2022/09/25 07:41:36;;;;;;;;;;;17.10;66.80;;;11.85;100.00;95168.94;4940097;28;19996;-46
2022/09/25 07:44:08;;;;;;;;;;;17.20;66.70;;;11.96;100.00;95155.19;4972437;28;19917;-48
2022/09/25 07:46:42;;;;;;;;;;;17.40;66.60;;;12.02;100.00;95158.59;4956153;28;19909;-46
2022/09/25 07:49:08;;;;;;;;;;;17.50;66.40;;;12.04;100.00;95164.47;4973044;28;19963;-48
2022/09/25 07:51:40;;;;;;;;;;;17.60;66.30;;;11.89;100.00;95162.72;4973140;28;19918;-49
2022/09/25 07:54:06;;;;;;;;;;;17.60;66.10;;;11.94;100.00;95159.19;4955368;28;19910;-46
2022/09/25 07:56:36;;;;;;;;;;;17.70;66.00;;;12.00;100.00;95158.06;4971346;28;19910;-48
2022/09/25 07:59:02;;;;;;;;;;;17.60;65.80;;;12.03;100.00;95162.84;4973245;28;19913;-50
2022/09/25 08:01:28;;;;;;;;;;;17.70;65.80;;;12.08;100.00;95162.00;4972752;28;20402;-48
2022/09/25 08:03:54;;;;;;;;;;;17.70;65.80;;;12.03;100.00;95163.66;4955406;28;19949;-46
2022/09/25 08:06:22;;;;;;;;;;;17.60;65.70;;;12.08;100.00;95159.34;4972945;28;20339;-47
2022/09/25 08:08:48;;;;;;;;;;;17.60;65.70;;;12.15;100.00;95168.59;4972469;28;20388;-51
2022/09/25 08:11:30;;;;;;;;;;;17.60;65.80;;;12.20;100.00;95165.88;4955468;28;21129;-47
2022/09/25 08:13:56;;;;;;;;;;;17.70;65.80;;;12.24;100.00;95161.53;4965266;28;19909;-50
2022/09/25 08:16:22;;;;;;;;;;;17.80;65.80;;;12.28;99.79;95164.44;4938436;28;20249;-49
2022/09/25 08:18:49;;;;;;;;;;;17.80;65.70;;;12.33;100.00;95168.94;4958359;28;20273;-49
2022/09/25 08:21:19;;;;;;;;;;;17.80;65.60;;;12.36;100.00;95163.03;4966959;28;19924;-47
2022/09/25 08:23:51;;;;;;;;;;;17.90;65.60;;;12.41;100.00;95170.97;4974896;23;20424;-49
2022/09/25 08:26:22;;;;;;;;;;;17.90;65.70;;;12.38;98.96;95169.69;4970341;28;19913;-49
2022/09/25 08:28:50;;;;;;;;;;;17.90;65.70;;;12.36;98.82;95171.03;4961519;28;19956;-48
2022/09/25 08:31:16;;;;;;;;;;;17.90;65.50;;;12.30;98.81;95170.31;4971233;28;19944;-47
2022/09/25 08:33:47;;;;;;;;;;;17.90;65.40;;;12.34;98.49;95170.53;4943817;28;20368;-47
2022/09/25 08:36:15;;;;;;;;;;;17.90;65.30;;;12.34;98.15;95175.84;4944953;28;19918;-47
2022/09/25 08:38:41;;;;;;;;;;;17.80;65.30;;;12.30;97.87;95175.63;4950390;28;19925;-46
2022/09/25 08:41:48;;;;;;;;;;;17.90;65.30;;;12.43;98.16;95180.28;4949803;28;19933;-51
2022/09/25 08:44:25;;;;;;;;;;;18.00;65.40;;;12.54;98.27;95178.31;4909343;29;19926;-49
2022/09/25 08:50:20;;;;;;;;;;;18.10;65.50;;;12.63;96.16;95187.28;4909818;29;20333;-49
2022/09/25 08:52:55;;;;;;;;;;;18.20;65.50;;;12.73;96.29;95189.81;4908195;29;20397;-49
2022/09/25 08:58:41;;;;;;;;;;;18.20;65.30;;;12.77;95.22;95181.22;4898136;29;19917;-48
2022/09/25 09:01:36;;;;;;;;;;;18.30;65.40;;;12.78;95.57;95174.78;4892899;29;19917;-49
2022/09/25 09:04:20;;;;;;;;;;;18.30;65.40;;;12.81;94.61;95166.97;4900842;29;19933;-51
2022/09/25 09:06:56;;;;;;;;;;;18.30;65.30;;;12.81;93.52;95163.50;4910798;29;19921;-49
2022/09/25 09:09:34;;;;;;;;;;;18.30;65.20;;;12.76;92.93;95174.28;4910708;29;20282;-46
2022/09/25 09:12:18;;;;;;;;;;;18.30;65.20;;;12.63;93.55;95170.41;4910879;29;20368;-48
2022/09/25 09:14:49;;;;;;;;;;;18.30;65.10;;;12.65;93.91;95166.38;4921799;28;20009;-48
2022/09/25 09:17:21;;;;;;;;;;;18.20;65.10;;;12.61;93.93;95164.59;4923277;28;19922;-48
2022/09/25 09:19:57;;;;;;;;;;;18.10;65.10;;;12.60;94.10;95169.16;4948981;28;20376;-51
2022/09/25 09:22:38;;;;;;;;;;;18.00;65.20;;;12.68;94.97;95167.69;4949832;28;20452;-53
2022/09/25 09:25:43;;;;;;;;;;;18.00;65.30;;;12.58;95.30;95171.28;4933698;28;20324;-51
2022/09/25 09:28:59;;;;;;;;;;;17.90;65.50;;;12.66;95.10;95167.19;4937526;28;19921;-48
2022/09/25 09:31:44;;;;;;;;;;;17.90;65.60;;;12.66;94.31;95173.34;4956518;28;19946;-48
2022/09/25 09:34:47;;;;;;;;;;;17.90;65.80;;;12.61;94.33;95169.94;4957888;28;19921;-47
2022/09/25 09:37:48;;;;;;;;;;;17.80;65.80;;;12.63;95.09;95175.75;4958254;28;19910;-46
2022/09/25 09:40:42;;;;;;;;;;;17.80;65.90;;;12.60;95.02;95173.69;4942587;28;20296;-46
2022/09/25 09:43:35;;;;;;;;;;;17.70;66.00;;;12.50;95.03;95166.56;4958452;28;19914;-50
2022/09/25 09:46:28;;;;;;;;;;;17.60;66.00;;;12.43;94.76;95169.59;4951318;28;19918;-50
2022/09/25 09:49:30;;;;;;;;;;;17.50;66.10;;;12.47;95.75;95167.16;4922500;29;19910;-50
2022/09/25 09:52:16;;;;;;;;;;;17.50;66.20;;;12.50;97.07;95167.41;4949759;28;19976;-47
2022/09/25 09:55:41;;;;;;;;;;;17.40;66.30;;;12.42;96.12;95175.25;4958123;28;19916;-51
2022/09/25 09:58:43;;;;;;;;;;;17.40;66.30;;;12.40;97.52;95170.16;4925069;29;19941;-48
2022/09/25 10:01:14;;;;;;;;;;;17.30;66.20;;;12.37;97.64;95165.41;4943670;28;19914;-51
2022/09/25 10:03:48;;;;;;;;;;;17.30;66.30;;;12.34;98.04;95165.19;4955595;28;19909;-50
2022/09/25 10:06:16;;;;;;;;;;;17.20;66.30;;;12.26;97.89;95164.75;4938504;29;19910;-47
2022/09/25 10:08:42;;;;;;;;;;;17.20;66.20;;;12.24;98.31;95166.09;4950265;28;20316;-47
2022/09/25 10:11:18;;;;;;;;;;;17.10;66.20;;;12.27;98.57;95165.53;4938086;29;20691;-48
2022/09/25 10:13:58;;;;;;;;;;;17.10;66.30;;;12.28;98.49;95161.75;4949534;28;21309;-46
2022/09/25 10:16:26;;;;;;;;;;;17.10;66.30;;;12.26;98.52;95156.72;4938304;29;19938;-50
2022/09/25 10:19:21;;;;;;;;;;;17.20;66.40;;;12.25;98.37;95165.81;4968517;28;19961;-50
2022/09/25 10:21:56;;;;;;;;;;;17.20;66.20;;;12.23;98.56;95159.16;4945308;28;20285;-46
2022/09/25 10:24:53;;;;;;;;;;;17.30;66.10;;;12.34;99.54;95160.63;4950576;28;19925;-48
2022/09/25 10:27:40;;;;;;;;;;;17.40;66.10;;;12.36;98.74;95158.47;4939054;28;19910;-50
2022/09/25 10:30:17;;;;;;;;;;;17.50;66.00;;;12.44;99.26;95157.84;4939233;29;19921;-51
2022/09/25 10:33:21;;;;;;;;;;;17.60;65.90;;;12.61;99.53;95154.69;4936213;29;20288;-47
2022/09/25 10:35:53;;;;;;;;;;;17.70;65.80;;;12.66;98.06;95143.13;4927217;29;19997;-47
2022/09/25 10:38:52;;;;;;;;;;;17.80;65.70;;;12.77;98.88;95147.25;4927109;29;20009;-50
2022/09/25 10:41:19;;;;;;;;;;;18.00;65.60;;;12.82;98.43;95152.53;4888433;29;20416;-46
2022/09/25 10:44:19;;;;;;;;;;;18.10;65.50;;;12.98;98.84;95155.78;4933540;28;19949;-48
2022/09/25 10:52:18;;;;;;;;;;;18.50;65.10;;;13.22;96.62;95161.03;4921550;29;20395;-46
2022/09/25 10:54:49;;;;;;;;;;;18.90;64.70;;;13.56;95.99;95160.78;4918642;29;19910;-47
2022/09/25 10:57:46;;;;;;;;;;;19.50;64.40;;;14.05;94.82;95155.94;4930104;28;20016;-48
2022/09/25 11:00:25;;;;;;;;;;;20.30;63.80;;;14.52;95.12;95157.44;4894615;29;19941;-47
2022/09/25 11:03:20;;;;;;;;;;;21.00;63.40;;;14.92;91.79;95154.22;4928486;29;19918;-50
2022/09/25 11:06:07;;;;;;;;;;;21.50;62.80;;;15.36;92.72;95158.81;4931569;29;19910;-46
2022/09/25 11:08:40;;;;;;;;;;;22.00;62.20;;;15.62;86.16;95160.91;4918812;28;20019;-50
2022/09/25 11:11:08;;;;;;;;;;;22.60;61.70;;;15.86;85.37;95163.28;4932479;29;20443;-51
2022/09/25 11:13:53;;;;;;;;;;;22.90;61.20;;;15.93;83.13;95166.31;4937382;28;19914;-50
2022/09/25 11:16:40;;;;;;;;;;;23.10;60.40;;;16.11;80.12;95161.81;4904117;29;19910;-49
2022/09/25 11:19:28;;;;;;;;;;;23.30;60.50;;;16.33;81.10;95171.72;4933890;29;19910;-52
2022/09/25 11:22:28;;;;;;;;;;;23.50;59.80;;;16.28;78.50;95166.47;4930763;29;20364;-49
2022/09/25 11:25:32;;;;;;;;;;;23.40;59.60;;;16.16;78.99;95157.09;4938932;28;19918;-46
2022/09/25 11:28:18;;;;;;;;;;;23.30;59.30;;;16.16;78.06;95159.00;4935507;29;19910;-45
2022/09/25 11:30:56;;;;;;;;;;;23.20;59.00;;;16.22;77.18;95155.06;4946945;28;19964;-44
2022/09/25 11:33:44;;;;;;;;;;;23.30;59.10;;;16.44;79.02;95154.19;4964466;28;20323;-49
2022/09/25 11:37:11;;;;;;;;;;;23.50;59.10;;;16.68;76.52;95148.41;4953723;28;19910;-49
2022/09/25 11:43:02;;;;;;;;;;;24.20;58.40;;;17.05;74.58;95148.97;4958262;28;19924;-51
2022/09/25 11:45:54;;;;;;;;;;;24.50;58.10;;;17.31;74.84;95151.66;4959025;28;19946;-52
2022/09/25 11:48:53;;;;;;;;;;;24.80;57.70;;;17.52;72.91;95144.50;4948044;28;19910;-54
2022/09/25 11:51:28;;;;;;;;;;;25.00;57.50;;;17.56;72.08;95139.28;4947090;28;20270;-53
2022/09/25 11:54:16;;;;;;;;;;;24.90;57.20;;;17.46;71.54;95143.09;4959773;28;20008;-54
2022/09/25 11:57:09;;;;;;;;;;;24.70;57.00;;;16.98;70.57;95144.03;4945667;28;19910;-50
2022/09/25 12:00:19;;;;;;;;;;;24.50;56.90;;;16.91;72.76;95143.72;4949026;28;19915;-48
2022/09/25 12:03:23;;;;;;;;;;;24.10;56.50;;;16.74;73.46;95138.31;4941221;28;19942;-47
2022/09/25 12:06:32;;;;;;;;;;;23.70;56.80;;;16.43;74.63;95141.88;4945584;28;20056;-48
2022/09/25 12:09:49;;;;;;;;;;;23.40;57.00;;;16.30;75.36;95137.41;4948423;28;19914;-47
2022/09/25 12:13:16;;;;;;;;;;;23.10;57.10;;;16.38;76.24;95140.09;4909677;28;20017;-49
2022/09/25 12:15:52;;;;;;;;;;;22.90;57.40;;;16.07;74.80;95142.03;4943388;28;19941;-51
2022/09/25 12:18:59;;;;;;;;;;;22.60;57.40;;;16.05;76.55;95142.34;4950134;28;19914;-51
2022/09/25 12:21:53;;;;;;;;;;;22.50;57.40;;;16.04;76.90;95142.66;4967318;28;20320;-49
2022/09/25 12:24:52;;;;;;;;;;;22.30;57.50;;;15.99;76.15;95132.84;4952385;28;19918;-48